Gabriella — OJHP — position and weather

sailwx.info

Track history (hours):
 
Tides and Currents Weather Stations Pressure Air Temp Water Temp Dewpoint Dewpoint Depression Visibility Wind Speed Wind Dir Waves Ship Positions

Gabriella

Last reported at 2016-May-26 15:30 UTC. Time now 2016-May-26 18:24 UTC.
Position N 59°21' E 018°27'.

Length 172 m; draft 6.5 m.

Type: Ship (hazmat cat A). MMSI: 230361000.

Date/timePositionNaut miles runAvg speedWind from/ knotsBaromVisibWave heightAir tempDewpointWater temp
2016-May-26 15:30N 59°21' E 018°27'1010.5
2016-May-26 14:33N 59°19' E 018°08'1 0.9
2016-May-26 13:33N 59°19' E 018°06'0 0.0
2016-May-26 12:33N 59°19' E 018°06'0 0.0
2016-May-26 10:09N 59°19' E 018°06'0 0.0
2016-May-26 09:33N 59°19' E 018°06'0 0.0
2016-May-26 08:33N 59°19' E 018°06'2 2.0
2016-May-26 07:33N 59°19' E 018°10'90 9.8
2016-May-25 22:21N 59°37' E 021°04'1417.6
2016-May-25 21:33N 59°34' E 021°31'4217.3
2016-May-25 19:08N 59°38' E 022°53'1017.6
2016-May-25 18:32N 59°40' E 023°13'1717.4
2016-May-25 17:33N 59°46' E 023°45'1717.0
2016-May-25 16:32N 59°55' E 024°14'21 2.1
2016-May-25 06:19N 59°60' E 024°56'1418.2
2016-May-25 05:32N 59°53' E 024°31'1818.2
2016-May-25 04:33N 59°47' E 023°57'1818.2
2016-May-25 03:33N 59°42' E 023°22'2418.2
2016-May-25 02:13N 59°36' E 022°35'1218.2
2016-May-25 01:33N 59°34' E 022°12'1818.0
2016-May-25 00:33N 59°32' E 021°37'1818.2
2016-May-24 23:33N 59°36' E 021°02'1817.6
2016-May-24 22:33N 59°43' E 020°29'6410.1
2016-May-24 16:12N 59°27' E 018°26'6 6.0
2016-May-24 15:12N 59°22' E 018°19'710.9
2016-May-24 14:33N 59°19' E 018°07'1 0.6
2016-May-24 13:31N 59°19' E 018°06'0 0.0
2016-May-24 12:28N 59°19' E 018°06'0 0.0
2016-May-24 10:13N 59°19' E 018°06'0 0.0
2016-May-24 09:10N 59°19' E 018°06'0 0.0
2016-May-24 08:31N 59°19' E 018°06'3 3.6
2016-May-24 07:33N 59°20' E 018°12'85 9.5
2016-May-23 22:32N 59°39' E 020°56'1717.3
2016-May-23 21:33N 59°34' E 021°29'1717.1
2016-May-23 20:33N 59°33' E 022°02'3617.7
2016-May-23 18:33N 59°40' E 023°11'1717.6
2016-May-23 17:33N 59°46' E 023°44'1716.8
2016-May-23 16:32N 59°55' E 024°13'22 2.1
2016-May-23 06:19N 59°59' E 024°56'1518.3
2016-May-23 05:31N 59°52' E 024°30'1818.3
2016-May-23 04:33N 59°46' E 023°57'1818.3
2016-May-23 03:33N 59°42' E 023°22'1918.2
2016-May-23 02:32N 59°38' E 022°46'1818.2
2016-May-23 01:34N 59°34' E 022°12'1817.9
2016-May-23 00:33N 59°33' E 021°36'4031.8
2016-May-22 23:18N 59°45' E 020°21'3 2.5
2016-May-22 22:09N 59°47' E 020°16'1118.1
2016-May-22 21:34N 59°53' E 019°59'5410.2
2016-May-22 16:17N 59°27' E 018°26'6 5.9
2016-May-22 15:17N 59°22' E 018°19'710.3
2016-May-22 14:34N 59°19' E 018°06'0 0.0
2016-May-22 13:31N 59°19' E 018°06'0 0.0
2016-May-22 12:31N 59°19' E 018°06'0 0.0
2016-May-22 11:28N 59°19' E 018°06'0 0.0
2016-May-22 10:28N 59°19' E 018°06'0 0.0
2016-May-22 09:28N 59°19' E 018°06'0 0.0
2016-May-22 08:25N 59°19' E 018°06'3 3.6
2016-May-22 07:33N 59°20' E 018°12'86 9.4
2016-May-21 22:27N 59°38' E 020°56'1718.5
2016-May-21 21:33N 59°34' E 021°28'1717.2
2016-May-21 20:33N 59°33' E 022°02'2617.5
2016-May-21 19:04N 59°37' E 022°53'1017.5
2016-May-21 18:31N 59°39' E 023°12'1717.4
2016-May-21 17:33N 59°44' E 023°44'3717.3
2016-May-21 15:25N 59°58' E 024°51'14 1.4
2016-May-21 05:20N 59°57' E 024°23'1317.0
2016-May-21 04:33N 59°50' E 024°01'1918.8
2016-May-21 03:33N 59°42' E 023°26'1918.6
2016-May-21 02:32N 59°38' E 022°50'1818.6
2016-May-21 01:33N 59°34' E 022°15'1818.3
2016-May-21 00:33N 59°32' E 021°39'1918.6
2016-May-20 23:33N 59°36' E 021°03'8010.9
2016-May-20 16:14N 59°27' E 018°26'6 6.0
2016-May-20 15:13N 59°22' E 018°19'710.8
2016-May-20 14:34N 59°19' E 018°06'0 0.3
2016-May-20 13:32N 59°19' E 018°06'0 0.0
2016-May-20 12:32N 59°19' E 018°06'0 0.0
2016-May-20 11:32N 59°19' E 018°06'0 0.0
2016-May-20 10:29N 59°19' E 018°06'0 0.0
2016-May-20 09:29N 59°19' E 018°06'2 1.1
2016-May-20 07:33N 59°19' E 018°10'91 9.8
2016-May-19 22:15N 59°38' E 021°06'1217.3
2016-May-19 21:33N 59°34' E 021°29'1717.1
2016-May-19 20:33N 59°33' E 022°02'1717.4
2016-May-19 19:33N 59°36' E 022°36'1817.4
2016-May-19 18:33N 59°40' E 023°10'1717.3
2016-May-19 17:33N 59°45' E 023°42'1717.3
2016-May-19 16:33N 59°54' E 024°12'11 0.9
2016-May-19 04:33N 59°46' E 023°57'1818.3
2016-May-19 03:33N 59°42' E 023°22'2618.3
2016-May-19 02:09N 59°36' E 022°32'1118.2
2016-May-19 01:32N 59°34' E 022°11'1818.0
2016-May-19 00:33N 59°33' E 021°36'2018.3
2016-May-18 23:28N 59°37' E 020°57'7810.6
2016-May-18 16:11N 59°27' E 018°26'6 5.9
2016-May-18 15:11N 59°22' E 018°19'710.8
2016-May-18 14:34N 59°19' E 018°07'1 0.7
2016-May-18 13:33N 59°19' E 018°06'0 0.0
2016-May-18 12:33N 59°19' E 018°06'0 0.0
2016-May-18 11:33N 59°19' E 018°06'0 0.0
2016-May-18 10:33N 59°19' E 018°06'0 0.0
2016-May-18 09:33N 59°19' E 018°06'0 0.0
2016-May-18 08:30N 59°19' E 018°06'3 2.9
2016-May-18 07:33N 59°20' E 018°11'91 9.7
2016-May-17 22:13N 59°38' E 021°07'1117.2
2016-May-17 21:33N 59°34' E 021°28'1717.0
2016-May-17 20:33N 59°33' E 022°02'3517.4
2016-May-17 18:33N 59°39' E 023°10'1717.3
2016-May-17 17:33N 59°44' E 023°43'8 0.6
2016-May-17 04:33N 59°46' E 023°58'1818.2
2016-May-17 03:33N 59°42' E 023°23'3718.2
2016-May-17 01:33N 59°33' E 022°12'1817.8
2016-May-17 00:34N 59°33' E 021°38'  
Track history (hours):
 
Tides and Currents Weather Stations Pressure Air Temp Water Temp Dewpoint Dewpoint Depression Visibility Wind Speed Wind Dir Waves Ship Positions

Gabriella

Last reported at 2016-May-26 15:30 UTC. Time now 2016-May-26 18:24 UTC.
Position N 59°21' E 018°27'.

Length 172 m; draft 6.5 m.

Type: Ship (hazmat cat A). MMSI: 230361000.

Date/timePositionNaut miles runAvg speedWind from/ knotsBaromVisibWave heightAir tempDewpointWater temp
2016-May-26 15:30N 59°21' E 018°27'1010.5
2016-May-26 14:33N 59°19' E 018°08'1 0.9
2016-May-26 13:33N 59°19' E 018°06'0 0.0
2016-May-26 12:33N 59°19' E 018°06'0 0.0
2016-May-26 10:09N 59°19' E 018°06'0 0.0
2016-May-26 09:33N 59°19' E 018°06'0 0.0
2016-May-26 08:33N 59°19' E 018°06'2 2.0
2016-May-26 07:33N 59°19' E 018°10'90 9.8
2016-May-25 22:21N 59°37' E 021°04'1417.6
2016-May-25 21:33N 59°34' E 021°31'4217.3
2016-May-25 19:08N 59°38' E 022°53'1017.6
2016-May-25 18:32N 59°40' E 023°13'1717.4
2016-May-25 17:33N 59°46' E 023°45'1717.0
2016-May-25 16:32N 59°55' E 024°14'21 2.1
2016-May-25 06:19N 59°60' E 024°56'1418.2
2016-May-25 05:32N 59°53' E 024°31'1818.2
2016-May-25 04:33N 59°47' E 023°57'1818.2
2016-May-25 03:33N 59°42' E 023°22'2418.2
2016-May-25 02:13N 59°36' E 022°35'1218.2
2016-May-25 01:33N 59°34' E 022°12'1818.0
2016-May-25 00:33N 59°32' E 021°37'1818.2
2016-May-24 23:33N 59°36' E 021°02'1817.6
2016-May-24 22:33N 59°43' E 020°29'6410.1
2016-May-24 16:12N 59°27' E 018°26'6 6.0
2016-May-24 15:12N 59°22' E 018°19'710.9
2016-May-24 14:33N 59°19' E 018°07'1 0.6
2016-May-24 13:31N 59°19' E 018°06'0 0.0
2016-May-24 12:28N 59°19' E 018°06'0 0.0
2016-May-24 10:13N 59°19' E 018°06'0 0.0
2016-May-24 09:10N 59°19' E 018°06'0 0.0
2016-May-24 08:31N 59°19' E 018°06'3 3.6
2016-May-24 07:33N 59°20' E 018°12'85 9.5
2016-May-23 22:32N 59°39' E 020°56'1717.3
2016-May-23 21:33N 59°34' E 021°29'1717.1
2016-May-23 20:33N 59°33' E 022°02'3617.7
2016-May-23 18:33N 59°40' E 023°11'1717.6
2016-May-23 17:33N 59°46' E 023°44'1716.8
2016-May-23 16:32N 59°55' E 024°13'22 2.1
2016-May-23 06:19N 59°59' E 024°56'1518.3
2016-May-23 05:31N 59°52' E 024°30'1818.3
2016-May-23 04:33N 59°46' E 023°57'1818.3
2016-May-23 03:33N 59°42' E 023°22'1918.2
2016-May-23 02:32N 59°38' E 022°46'1818.2
2016-May-23 01:34N 59°34' E 022°12'1817.9
2016-May-23 00:33N 59°33' E 021°36'4031.8
2016-May-22 23:18N 59°45' E 020°21'3 2.5
2016-May-22 22:09N 59°47' E 020°16'1118.1
2016-May-22 21:34N 59°53' E 019°59'5410.2
2016-May-22 16:17N 59°27' E 018°26'6 5.9
2016-May-22 15:17N 59°22' E 018°19'710.3
2016-May-22 14:34N 59°19' E 018°06'0 0.0
2016-May-22 13:31N 59°19' E 018°06'0 0.0
2016-May-22 12:31N 59°19' E 018°06'0 0.0
2016-May-22 11:28N 59°19' E 018°06'0 0.0
2016-May-22 10:28N 59°19' E 018°06'0 0.0
2016-May-22 09:28N 59°19' E 018°06'0 0.0
2016-May-22 08:25N 59°19' E 018°06'3 3.6
2016-May-22 07:33N 59°20' E 018°12'86 9.4
2016-May-21 22:27N 59°38' E 020°56'1718.5
2016-May-21 21:33N 59°34' E 021°28'1717.2
2016-May-21 20:33N 59°33' E 022°02'2617.5
2016-May-21 19:04N 59°37' E 022°53'1017.5
2016-May-21 18:31N 59°39' E 023°12'1717.4
2016-May-21 17:33N 59°44' E 023°44'3717.3
2016-May-21 15:25N 59°58' E 024°51'14 1.4
2016-May-21 05:20N 59°57' E 024°23'1317.0
2016-May-21 04:33N 59°50' E 024°01'1918.8
2016-May-21 03:33N 59°42' E 023°26'1918.6
2016-May-21 02:32N 59°38' E 022°50'1818.6
2016-May-21 01:33N 59°34' E 022°15'1818.3
2016-May-21 00:33N 59°32' E 021°39'1918.6
2016-May-20 23:33N 59°36' E 021°03'8010.9
2016-May-20 16:14N 59°27' E 018°26'6 6.0
2016-May-20 15:13N 59°22' E 018°19'710.8
2016-May-20 14:34N 59°19' E 018°06'0 0.3
2016-May-20 13:32N 59°19' E 018°06'0 0.0
2016-May-20 12:32N 59°19' E 018°06'0 0.0
2016-May-20 11:32N 59°19' E 018°06'0 0.0
2016-May-20 10:29N 59°19' E 018°06'0 0.0
2016-May-20 09:29N 59°19' E 018°06'2 1.1
2016-May-20 07:33N 59°19' E 018°10'91 9.8
2016-May-19 22:15N 59°38' E 021°06'1217.3
2016-May-19 21:33N 59°34' E 021°29'1717.1
2016-May-19 20:33N 59°33' E 022°02'1717.4
2016-May-19 19:33N 59°36' E 022°36'1817.4
2016-May-19 18:33N 59°40' E 023°10'1717.3
2016-May-19 17:33N 59°45' E 023°42'1717.3
2016-May-19 16:33N 59°54' E 024°12'11 0.9
2016-May-19 04:33N 59°46' E 023°57'1818.3
2016-May-19 03:33N 59°42' E 023°22'2618.3
2016-May-19 02:09N 59°36' E 022°32'1118.2
2016-May-19 01:32N 59°34' E 022°11'1818.0
2016-May-19 00:33N 59°33' E 021°36'2018.3
2016-May-18 23:28N 59°37' E 020°57'7810.6
2016-May-18 16:11N 59°27' E 018°26'6 5.9
2016-May-18 15:11N 59°22' E 018°19'710.8
2016-May-18 14:34N 59°19' E 018°07'1 0.7
2016-May-18 13:33N 59°19' E 018°06'0 0.0
2016-May-18 12:33N 59°19' E 018°06'0 0.0
2016-May-18 11:33N 59°19' E 018°06'0 0.0
2016-May-18 10:33N 59°19' E 018°06'0 0.0
2016-May-18 09:33N 59°19' E 018°06'0 0.0
2016-May-18 08:30N 59°19' E 018°06'3 2.9
2016-May-18 07:33N 59°20' E 018°11'91 9.7
2016-May-17 22:13N 59°38' E 021°07'1117.2
2016-May-17 21:33N 59°34' E 021°28'1717.0
2016-May-17 20:33N 59°33' E 022°02'3517.4
2016-May-17 18:33N 59°39' E 023°10'1717.3
2016-May-17 17:33N 59°44' E 023°43'8 0.6
2016-May-17 04:33N 59°46' E 023°58'1818.2
2016-May-17 03:33N 59°42' E 023°23'3718.2
2016-May-17 01:33N 59°33' E 022°12'1817.8
2016-May-17 00:34N 59°33' E 021°38'  

Dump ship's entire track history